createdAt,value
2022-09-27T00:01:24.281Z,39.28
2022-09-27T00:03:55.322Z,40.90
2022-09-27T00:06:27.834Z,39.22
2022-09-27T00:08:55.455Z,42.08
2022-09-27T00:11:32.093Z,42.28
2022-09-27T00:13:59.884Z,42.50
2022-09-27T00:16:30.155Z,42.45
2022-09-27T00:19:24.221Z,40.33
2022-09-27T00:21:50.854Z,41.17
2022-09-27T00:24:21.082Z,39.50
2022-09-27T00:26:48.448Z,44.67
2022-09-27T00:29:18.068Z,41.00
2022-09-27T00:31:44.986Z,42.75
2022-09-27T00:34:18.834Z,42.35
2022-09-27T00:39:11.836Z,38.70
2022-09-27T00:41:42.549Z,35.53
2022-09-27T00:44:27.488Z,38.85
2022-09-27T00:47:10.686Z,34.75
2022-09-27T00:49:46.815Z,38.93
2022-09-27T00:52:21.767Z,34.70
2022-09-27T00:54:52.933Z,34.47
2022-09-27T00:57:22.017Z,35.78
2022-09-27T00:59:59.341Z,34.63
2022-09-27T01:02:26.102Z,34.78
2022-09-27T01:04:53.605Z,36.17
2022-09-27T01:07:20.217Z,34.65
2022-09-27T01:09:47.815Z,36.13
2022-09-27T01:12:39.150Z,36.17
2022-09-27T01:15:10.632Z,40.28
2022-09-27T01:17:58.883Z,39.42
2022-09-27T01:20:31.557Z,38.78
2022-09-27T01:23:23.956Z,44.20
2022-09-27T01:26:21.839Z,58.78
2022-09-27T01:30:54.291Z,75.85
2022-09-27T01:33:35.831Z,81.32
2022-09-27T01:36:02.458Z,69.68
2022-09-27T01:38:32.218Z,93.03
2022-09-27T01:41:09.340Z,80.70
2022-09-27T01:43:47.452Z,55.60
2022-09-27T01:46:44.517Z,94.05
2022-09-27T01:49:17.513Z,83.05
2022-09-27T01:51:55.124Z,78.57
2022-09-27T01:54:30.710Z,60.88
2022-09-27T01:57:00.734Z,63.88
2022-09-27T01:59:58.630Z,62.05
2022-09-27T02:02:29.697Z,81.47
2022-09-27T02:05:00.420Z,58.88
2022-09-27T02:07:34.878Z,86.32
2022-09-27T02:10:17.287Z,82.88
2022-09-27T02:12:55.292Z,85.57
2022-09-27T02:15:22.025Z,90.22
2022-09-27T02:18:05.775Z,96.30
2022-09-27T02:20:45.010Z,112.78
2022-09-27T02:23:29.360Z,84.75
2022-09-27T02:26:03.839Z,81.85
2022-09-27T02:28:41.912Z,86.45
2022-09-27T02:31:09.147Z,84.95
2022-09-27T02:34:03.958Z,60.67
2022-09-27T02:36:31.309Z,57.83
2022-09-27T02:38:59.016Z,84.35
2022-09-27T02:41:25.892Z,75.78
2022-09-27T02:44:02.060Z,73.10
2022-09-27T02:47:12.841Z,74.68
2022-09-27T02:50:01.204Z,67.68
2022-09-27T02:52:49.253Z,60.03
2022-09-27T02:55:34.878Z,69.47
2022-09-27T02:58:20.827Z,54.75
2022-09-27T03:01:12.957Z,49.70
2022-09-27T03:04:05.765Z,67.03
2022-09-27T03:06:34.263Z,60.40
2022-09-27T03:09:00.899Z,53.47
2022-09-27T03:11:27.718Z,48.78
2022-09-27T03:14:08.409Z,58.60
2022-09-27T03:16:35.689Z,50.38
2022-09-27T03:19:02.337Z,43.70
2022-09-27T03:21:29.492Z,44.97
2022-09-27T03:23:56.169Z,42.58
2022-09-27T03:26:23.168Z,45.78
2022-09-27T03:31:31.212Z,50.42
2022-09-27T03:33:57.827Z,46.45
2022-09-27T03:36:24.621Z,44.35
2022-09-27T03:38:51.190Z,44.42
2022-09-27T03:41:17.731Z,46.88
2022-09-27T03:43:44.245Z,62.10
2022-09-27T03:46:10.835Z,102.07
2022-09-27T03:48:37.463Z,90.82
2022-09-27T03:51:04.659Z,83.68
2022-09-27T03:53:31.435Z,60.28
2022-09-27T03:55:58.813Z,71.32
2022-09-27T03:58:25.591Z,88.43
2022-09-27T04:00:52.128Z,86.45
2022-09-27T04:03:19.702Z,83.32
2022-09-27T04:05:46.294Z,77.72
2022-09-27T04:08:13.754Z,113.90
2022-09-27T04:10:41.816Z,104.63
2022-09-27T04:13:08.475Z,119.63
2022-09-27T04:15:35.071Z,66.50
2022-09-27T04:18:01.774Z,83.28
2022-09-27T04:20:28.432Z,74.10
2022-09-27T04:22:54.954Z,47.03
2022-09-27T04:25:21.557Z,78.43
2022-09-27T04:27:48.715Z,69.53
2022-09-27T04:30:15.698Z,80.38
2022-09-27T04:32:43.231Z,74.03
2022-09-27T04:35:29.905Z,81.63
2022-09-27T04:37:56.593Z,93.90
2022-09-27T04:40:24.181Z,44.33
2022-09-27T04:42:51.270Z,64.60
2022-09-27T04:45:19.387Z,119.38
2022-09-27T04:47:47.595Z,95.15
2022-09-27T04:50:15.208Z,43.13
2022-09-27T04:52:42.075Z,44.78
2022-09-27T04:55:09.741Z,42.42
2022-09-27T04:57:36.959Z,44.95
2022-09-27T05:00:05.125Z,65.43
2022-09-27T05:02:31.860Z,49.72
2022-09-27T05:04:59.410Z,33.70
2022-09-27T05:07:27.300Z,43.95
2022-09-27T05:09:53.915Z,34.58
2022-09-27T05:12:21.142Z,31.00
2022-09-27T05:14:47.783Z,29.90
2022-09-27T05:17:14.755Z,49.40
2022-09-27T05:19:41.364Z,54.72
2022-09-27T05:22:07.916Z,41.03
2022-09-27T05:24:35.338Z,52.85
2022-09-27T05:27:02.329Z,42.90
2022-09-27T05:32:51.776Z,35.50
2022-09-27T05:35:23.195Z,32.08
2022-09-27T05:37:59.614Z,32.30
2022-09-27T05:40:42.809Z,27.92
2022-09-27T05:43:13.448Z,29.65
2022-09-27T05:45:44.053Z,32.70
2022-09-27T05:48:15.208Z,37.70
2022-09-27T05:50:44.831Z,35.90
2022-09-27T05:53:18.715Z,32.42
2022-09-27T05:58:17.460Z,32.40
2022-09-27T06:00:45.962Z,24.40
2022-09-27T06:03:15.867Z,23.52
2022-09-27T06:05:47.937Z,21.92
2022-09-27T06:08:20.951Z,20.73
2022-09-27T06:10:49.393Z,20.77
2022-09-27T06:13:19.550Z,13.20
2022-09-27T06:15:50.712Z,13.30
2022-09-27T06:18:19.879Z,15.88
2022-09-27T06:20:47.537Z,13.25
2022-09-27T06:23:19.786Z,20.40
2022-09-27T06:25:47.721Z,17.00
2022-09-27T06:28:16.073Z,14.40
2022-09-27T06:30:48.002Z,14.98
2022-09-27T06:33:20.041Z,15.45
2022-09-27T06:35:49.481Z,15.65
2022-09-27T06:38:21.863Z,15.88
2022-09-27T06:40:49.849Z,13.43
2022-09-27T06:43:20.705Z,13.80
2022-09-27T06:45:48.700Z,12.90
2022-09-27T06:48:17.360Z,15.63
2022-09-27T06:50:46.400Z,16.00
2022-09-27T06:53:15.833Z,16.13
2022-09-27T06:55:45.927Z,17.77
2022-09-27T06:58:32.642Z,19.25
2022-09-27T07:00:59.594Z,19.65
2022-09-27T07:03:36.479Z,24.58
2022-09-27T07:06:13.874Z,22.30
2022-09-27T07:08:42.246Z,27.27
2022-09-27T07:11:12.432Z,26.00
2022-09-27T07:13:45.043Z,22.08
2022-09-27T07:16:18.501Z,25.00
2022-09-27T07:18:55.488Z,23.67
2022-09-27T07:21:22.845Z,22.75
2022-09-27T07:23:58.829Z,26.33
2022-09-27T07:26:28.278Z,26.52
2022-09-27T07:29:00.583Z,22.90
2022-09-27T07:33:34.790Z,23.50
2022-09-27T07:36:06.274Z,21.17
2022-09-27T07:38:32.958Z,24.10
2022-09-27T07:41:00.895Z,19.02
2022-09-27T07:43:27.566Z,21.30
2022-09-27T07:45:56.666Z,19.85
2022-09-27T07:48:23.225Z,20.33
2022-09-27T07:50:49.745Z,21.00
2022-09-27T07:53:16.422Z,21.05
2022-09-27T07:55:42.981Z,20.00
2022-09-27T07:58:11.612Z,19.77
2022-09-27T08:00:40.898Z,15.27
2022-09-27T08:03:10.731Z,16.52
2022-09-27T08:05:38.261Z,14.15
2022-09-27T08:08:05.214Z,13.63
2022-09-27T08:10:33.556Z,14.93
2022-09-27T08:13:04.200Z,15.13
2022-09-27T08:15:39.218Z,14.70
2022-09-27T08:18:10.014Z,16.08
2022-09-27T08:20:36.951Z,18.90
2022-09-27T08:23:04.416Z,15.43
2022-09-27T08:25:31.365Z,15.40
2022-09-27T08:28:02.254Z,16.15
2022-09-27T08:30:31.331Z,16.65
2022-09-27T08:32:59.179Z,16.30
2022-09-27T08:35:25.797Z,16.35
2022-09-27T08:37:57.035Z,16.25
2022-09-27T08:40:28.226Z,16.27
2022-09-27T08:43:09.353Z,17.60
2022-09-27T08:45:50.438Z,17.05
2022-09-27T08:48:17.965Z,15.85
2022-09-27T08:50:46.242Z,16.23
2022-09-27T08:53:26.461Z,15.98
2022-09-27T08:55:56.870Z,15.95
2022-09-27T08:58:43.696Z,14.68
2022-09-27T09:01:14.951Z,16.45
2022-09-27T09:03:55.040Z,14.77
2022-09-27T09:06:30.032Z,15.48
2022-09-27T09:09:08.612Z,14.88
2022-09-27T09:12:24.498Z,16.35
2022-09-27T09:15:08.027Z,15.70
2022-09-27T09:17:52.418Z,16.58
2022-09-27T09:20:30.944Z,17.48
2022-09-27T09:23:16.012Z,16.85
2022-09-27T09:26:24.150Z,17.02
2022-09-27T09:29:22.597Z,18.92
2022-09-27T09:34:40.916Z,17.40
2022-09-27T09:37:21.563Z,16.67
2022-09-27T09:40:08.150Z,18.02
2022-09-27T09:42:42.303Z,16.80
2022-09-27T09:45:21.276Z,16.13
2022-09-27T09:48:02.898Z,20.88
2022-09-27T09:50:36.516Z,18.02
2022-09-27T09:55:42.385Z,16.25
2022-09-27T09:58:21.867Z,14.65
2022-09-27T10:00:53.816Z,16.35
2022-09-27T10:03:20.456Z,14.82
2022-09-27T10:05:47.496Z,15.77
2022-09-27T10:08:23.010Z,16.10
2022-09-27T10:10:49.989Z,15.00
2022-09-27T10:13:20.265Z,14.70
2022-09-27T10:15:56.338Z,13.35
2022-09-27T10:18:24.204Z,15.45
2022-09-27T10:21:00.118Z,14.52
2022-09-27T10:23:26.897Z,15.38
2022-09-27T10:25:57.667Z,16.80
2022-09-27T10:28:27.224Z,15.43
2022-09-27T10:30:59.480Z,17.35
2022-09-27T10:33:27.737Z,16.77
2022-09-27T10:35:54.383Z,16.95
2022-09-27T10:38:23.920Z,16.33
2022-09-27T10:40:53.254Z,15.32
2022-09-27T10:43:30.010Z,15.50
2022-09-27T10:46:12.865Z,15.20
2022-09-27T10:48:42.507Z,14.45
2022-09-27T10:51:25.058Z,16.02
2022-09-27T10:53:52.059Z,17.17
2022-09-27T10:56:25.079Z,15.10
2022-09-27T10:58:52.918Z,14.98
2022-09-27T11:01:19.970Z,13.13
2022-09-27T11:03:53.519Z,12.48
2022-09-27T11:08:52.170Z,13.07
2022-09-27T11:11:20.191Z,12.68
2022-09-27T11:14:05.111Z,10.13
2022-09-27T11:16:41.701Z,11.90
2022-09-27T11:19:30.364Z,11.80
2022-09-27T11:22:15.540Z,11.60
2022-09-27T11:25:13.159Z,11.43
2022-09-27T11:27:51.657Z,9.93
2022-09-27T11:30:21.740Z,9.60
2022-09-27T11:35:34.274Z,12.02
2022-09-27T11:38:51.232Z,10.13
2022-09-27T11:41:40.224Z,10.33
2022-09-27T11:44:21.258Z,8.52
2022-09-27T11:47:18.253Z,8.40
2022-09-27T11:50:00.137Z,8.10
2022-09-27T11:52:36.733Z,8.65
2022-09-27T11:55:38.706Z,8.05
2022-09-27T11:58:30.998Z,7.43
2022-09-27T12:01:03.617Z,7.40
2022-09-27T12:03:51.942Z,8.43
2022-09-27T12:06:47.596Z,8.23
2022-09-27T12:09:23.110Z,8.27
2022-09-27T12:11:54.830Z,8.90
2022-09-27T12:14:30.173Z,9.30
2022-09-27T12:16:57.857Z,8.77
2022-09-27T12:19:31.383Z,9.75
2022-09-27T12:22:02.555Z,9.35
2022-09-27T12:24:30.731Z,7.82
2022-09-27T12:27:09.894Z,8.95
2022-09-27T12:29:41.968Z,9.73
2022-09-27T12:32:18.256Z,8.65
2022-09-27T12:35:02.464Z,8.38
2022-09-27T12:37:37.340Z,10.18
2022-09-27T12:40:17.479Z,9.57
2022-09-27T12:43:03.614Z,10.80
2022-09-27T12:45:53.519Z,9.93
2022-09-27T12:48:55.650Z,10.32
2022-09-27T12:51:23.809Z,10.18
2022-09-27T12:53:59.515Z,9.93
2022-09-27T12:57:17.975Z,11.13
2022-09-27T13:00:10.264Z,9.25
2022-09-27T13:05:59.587Z,8.50
2022-09-27T13:08:41.322Z,8.88
2022-09-27T13:11:23.591Z,8.68
2022-09-27T13:13:55.555Z,9.52
2022-09-27T13:16:22.384Z,10.10
2022-09-27T13:18:53.125Z,9.50
2022-09-27T13:21:51.250Z,9.88
2022-09-27T13:24:31.193Z,9.90
2022-09-27T13:27:01.104Z,10.43
2022-09-27T13:29:30.308Z,9.82
2022-09-27T13:31:58.112Z,8.20
2022-09-27T13:36:38.568Z,10.52
2022-09-27T13:39:10.368Z,10.50
2022-09-27T13:41:49.517Z,9.95
2022-09-27T13:44:28.532Z,9.93
2022-09-27T13:47:05.964Z,10.70
2022-09-27T13:49:42.226Z,9.90
2022-09-27T13:52:20.963Z,9.95
2022-09-27T13:54:56.920Z,11.48
2022-09-27T13:57:42.721Z,10.35
2022-09-27T14:00:33.636Z,10.32
2022-09-27T14:03:54.002Z,10.27
2022-09-27T14:06:26.432Z,10.25
2022-09-27T14:09:03.037Z,9.95
2022-09-27T14:11:39.205Z,9.80
2022-09-27T14:14:13.046Z,11.02
2022-09-27T14:16:45.469Z,10.40
2022-09-27T14:19:19.151Z,11.43
2022-09-27T14:24:22.168Z,11.95
2022-09-27T14:26:50.987Z,13.18
2022-09-27T14:29:22.875Z,12.95
2022-09-27T14:32:04.836Z,12.77
2022-09-27T14:34:33.962Z,12.60
2022-09-27T14:37:19.705Z,13.10
2022-09-27T14:39:54.329Z,12.73
2022-09-27T14:42:23.521Z,13.10
2022-09-27T14:44:51.780Z,17.00
2022-09-27T14:47:24.990Z,13.45
2022-09-27T14:49:57.382Z,13.25
2022-09-27T14:52:28.725Z,16.48
2022-09-27T14:54:57.288Z,14.18
2022-09-27T14:57:25.320Z,16.00
2022-09-27T14:59:52.106Z,15.02
2022-09-27T15:02:22.342Z,14.15
2022-09-27T15:04:53.364Z,14.48
2022-09-27T15:07:26.291Z,16.42
2022-09-27T15:09:53.805Z,14.65
2022-09-27T15:12:27.233Z,15.30
2022-09-27T15:15:01.797Z,14.38
2022-09-27T15:17:32.303Z,14.27
2022-09-27T15:20:01.858Z,13.30
2022-09-27T15:22:41.317Z,14.07
2022-09-27T15:25:23.068Z,15.95
2022-09-27T15:28:00.983Z,15.23
2022-09-27T15:30:34.989Z,14.73
2022-09-27T15:33:22.773Z,13.45
2022-09-27T15:37:38.115Z,12.73
2022-09-27T15:40:17.721Z,12.30
2022-09-27T15:43:02.059Z,13.13
2022-09-27T15:45:34.186Z,12.90
2022-09-27T15:48:14.960Z,14.30
2022-09-27T15:50:42.255Z,13.90
2022-09-27T15:53:10.149Z,14.57
2022-09-27T15:55:43.676Z,19.75
2022-09-27T15:58:24.136Z,14.90
2022-09-27T16:00:59.535Z,15.18
2022-09-27T16:03:27.161Z,16.13
2022-09-27T16:05:56.155Z,19.75
2022-09-27T16:08:23.989Z,19.92
2022-09-27T16:10:56.024Z,20.05
2022-09-27T16:13:32.395Z,22.67
2022-09-27T16:15:59.991Z,22.75
2022-09-27T16:18:30.271Z,22.17
2022-09-27T16:20:58.382Z,23.98
2022-09-27T16:23:25.004Z,25.85
2022-09-27T16:25:53.383Z,23.55
2022-09-27T16:28:19.931Z,25.88
2022-09-27T16:30:48.102Z,25.77
2022-09-27T16:33:14.866Z,26.13
2022-09-27T16:35:41.501Z,26.00
2022-09-27T16:38:08.521Z,27.63
2022-09-27T16:40:38.702Z,24.10
2022-09-27T16:43:07.571Z,25.33
2022-09-27T16:45:36.486Z,23.63
2022-09-27T16:48:03.720Z,23.38
2022-09-27T16:50:49.027Z,24.13
2022-09-27T16:53:16.176Z,26.08
2022-09-27T16:55:42.828Z,23.05
2022-09-27T16:58:09.479Z,24.80
2022-09-27T17:00:36.247Z,25.00
2022-09-27T17:03:02.974Z,24.50
2022-09-27T17:05:29.672Z,26.45
2022-09-27T17:07:56.471Z,25.77
2022-09-27T17:10:23.706Z,25.05
2022-09-27T17:12:50.519Z,22.45
2022-09-27T17:15:17.497Z,29.52
2022-09-27T17:17:45.456Z,23.27
2022-09-27T17:20:12.872Z,27.63
2022-09-27T17:22:39.500Z,26.02
2022-09-27T17:25:06.535Z,21.95
2022-09-27T17:27:33.300Z,27.85
2022-09-27T17:30:00.146Z,25.00
2022-09-27T17:32:26.825Z,22.80
2022-09-27T17:34:54.452Z,26.73
2022-09-27T17:38:40.699Z,36.10
2022-09-27T17:41:11.085Z,32.17
2022-09-27T17:43:43.861Z,33.42
2022-09-27T17:46:11.235Z,49.67
2022-09-27T17:48:57.798Z,48.08
2022-09-27T17:51:24.597Z,47.67
2022-09-27T17:53:52.402Z,49.50
2022-09-27T17:56:19.524Z,40.25
2022-09-27T17:58:50.902Z,62.38
2022-09-27T18:01:21.182Z,59.80
2022-09-27T18:03:48.705Z,156.55
2022-09-27T18:06:19.144Z,76.80
2022-09-27T18:08:45.849Z,46.15
2022-09-27T18:11:15.837Z,52.45
2022-09-27T18:13:44.041Z,39.47
2022-09-27T18:16:13.573Z,38.65
2022-09-27T18:18:42.508Z,40.45
2022-09-27T18:21:22.062Z,37.47
2022-09-27T18:23:52.243Z,39.20
2022-09-27T18:26:20.355Z,41.55
2022-09-27T18:28:47.251Z,41.90
2022-09-27T18:31:17.188Z,40.25
2022-09-27T18:33:44.199Z,38.67
2022-09-27T18:36:15.119Z,38.30
2022-09-27T18:38:42.889Z,37.17
2022-09-27T18:41:18.073Z,39.20
2022-09-27T18:43:46.552Z,48.70
2022-09-27T18:46:34.964Z,44.50
2022-09-27T18:49:03.240Z,44.60
2022-09-27T18:51:30.419Z,37.85
2022-09-27T18:54:02.419Z,41.33
2022-09-27T18:56:30.226Z,36.00
2022-09-27T18:58:58.703Z,37.35
2022-09-27T19:01:26.037Z,35.78
2022-09-27T19:03:53.504Z,30.25
2022-09-27T19:06:24.032Z,30.25
2022-09-27T19:08:58.930Z,28.38
2022-09-27T19:11:27.164Z,29.13
2022-09-27T19:14:04.374Z,28.63
2022-09-27T19:16:31.507Z,33.55
2022-09-27T19:18:58.887Z,31.85
2022-09-27T19:21:28.533Z,31.58
2022-09-27T19:23:56.357Z,31.13
2022-09-27T19:26:26.163Z,33.35
2022-09-27T19:28:53.777Z,32.72
2022-09-27T19:31:23.548Z,32.80
2022-09-27T19:33:52.393Z,36.10
2022-09-27T19:49:57.374Z,37.60
2022-09-27T19:52:25.063Z,37.60
2022-09-27T19:54:51.623Z,36.05
2022-09-27T19:57:18.352Z,34.75
2022-09-27T19:59:44.927Z,29.23
2022-09-27T20:02:12.025Z,20.90
2022-09-27T20:04:39.047Z,16.77
2022-09-27T20:07:05.718Z,16.17
2022-09-27T20:09:36.649Z,14.75
2022-09-27T20:12:04.881Z,18.20
2022-09-27T20:14:31.567Z,13.80
2022-09-27T20:16:58.250Z,14.20
2022-09-27T20:19:24.888Z,17.23
2022-09-27T20:21:51.933Z,16.58
2022-09-27T20:24:18.470Z,16.92
2022-09-27T20:26:45.015Z,11.23
2022-09-27T20:29:11.611Z,8.55
2022-09-27T20:31:57.009Z,6.68
2022-09-27T20:34:29.775Z,6.70
2022-09-27T20:36:56.413Z,4.78
2022-09-27T20:39:23.739Z,4.70
2022-09-27T20:41:50.957Z,4.65
2022-09-27T20:44:19.852Z,5.15
2022-09-27T20:46:47.999Z,3.75
2022-09-27T20:49:17.910Z,3.72
2022-09-27T20:51:48.477Z,4.03
2022-09-27T20:54:15.297Z,4.63
2022-09-27T20:56:50.424Z,4.18
2022-09-27T20:59:20.395Z,3.60
2022-09-27T21:01:49.209Z,3.28
2022-09-27T21:04:18.160Z,3.88
2022-09-27T21:06:44.984Z,3.08
2022-09-27T21:09:18.417Z,2.90
2022-09-27T21:11:48.521Z,3.17
2022-09-27T21:14:15.596Z,4.97
2022-09-27T21:16:42.253Z,3.08
2022-09-27T21:19:10.002Z,5.55
2022-09-27T21:21:36.904Z,3.55
2022-09-27T21:24:03.712Z,3.55
2022-09-27T21:26:33.207Z,4.05
2022-09-27T21:29:04.972Z,3.90
2022-09-27T21:31:33.268Z,4.30
2022-09-27T21:34:02.095Z,6.03
2022-09-27T21:36:34.082Z,4.85
2022-09-27T21:51:15.448Z,3.38
2022-09-27T21:53:44.706Z,2.83
2022-09-27T21:56:11.853Z,3.22
2022-09-27T21:58:40.693Z,2.30
2022-09-27T22:01:09.937Z,2.17
2022-09-27T22:03:42.828Z,2.47
2022-09-27T22:06:12.771Z,2.08
2022-09-27T22:08:39.706Z,3.70
2022-09-27T22:11:07.415Z,1.77
2022-09-27T22:13:34.946Z,1.98
2022-09-27T22:16:08.854Z,1.88
2022-09-27T22:18:37.513Z,2.10
2022-09-27T22:21:06.120Z,2.25
2022-09-27T22:23:33.063Z,2.47
2022-09-27T22:26:00.514Z,1.70
2022-09-27T22:28:27.566Z,3.38
2022-09-27T22:30:54.160Z,3.42
2022-09-27T22:33:20.706Z,2.55
2022-09-27T22:35:48.566Z,3.38
2022-09-27T22:38:16.072Z,3.47
2022-09-27T22:40:42.708Z,3.72
2022-09-27T22:43:09.356Z,3.08
2022-09-27T22:45:35.885Z,4.20
2022-09-27T22:48:02.435Z,3.92
2022-09-27T22:50:28.953Z,3.80
2022-09-27T22:52:55.500Z,6.47
2022-09-27T22:55:22.079Z,3.67
2022-09-27T22:57:48.704Z,4.13
2022-09-27T23:00:15.314Z,4.00
2022-09-27T23:02:41.885Z,5.38
2022-09-27T23:05:09.038Z,4.35
2022-09-27T23:07:35.563Z,4.88
2022-09-27T23:10:02.204Z,5.38
2022-09-27T23:12:31.152Z,4.18
2022-09-27T23:14:57.824Z,3.70
2022-09-27T23:17:24.413Z,3.85
2022-09-27T23:19:51.035Z,3.92
2022-09-27T23:22:17.640Z,4.95
2022-09-27T23:24:44.300Z,5.10
2022-09-27T23:27:29.287Z,7.10
2022-09-27T23:29:56.005Z,5.13
2022-09-27T23:32:22.822Z,5.15
2022-09-27T23:34:49.780Z,6.43
2022-09-27T23:37:16.334Z,4.80
2022-09-27T23:41:32.690Z,5.20
2022-09-27T23:43:59.283Z,6.25
2022-09-27T23:46:25.971Z,4.97
2022-09-27T23:48:53.650Z,6.85
2022-09-27T23:51:20.364Z,6.15
2022-09-27T23:53:47.240Z,4.68
2022-09-27T23:56:16.563Z,5.35
2022-09-27T23:58:45.328Z,5.15
